sensor_id;sensor_type;location;lat;lon;timestamp;temperature;humidity
5246;DHT22;54412;51.206;6.888;2023-04-09T00:00:35;9.70;99.90
5246;DHT22;54412;51.206;6.888;2023-04-09T00:03:01;9.60;99.90
5246;DHT22;54412;51.206;6.888;2023-04-09T00:05:27;9.60;99.90
5246;DHT22;54412;51.206;6.888;2023-04-09T00:07:53;9.60;99.90
5246;DHT22;54412;51.206;6.888;2023-04-09T00:10:18;9.50;99.90
5246;DHT22;54412;51.206;6.888;2023-04-09T00:12:44;9.30;99.90
5246;DHT22;54412;51.206;6.888;2023-04-09T00:15:11;9.20;99.90
5246;DHT22;54412;51.206;6.888;2023-04-09T00:17:37;9.20;99.90
5246;DHT22;54412;51.206;6.888;2023-04-09T00:20:02;9.30;99.90
5246;DHT22;54412;51.206;6.888;2023-04-09T00:22:29;9.30;99.90
5246;DHT22;54412;51.206;6.888;2023-04-09T00:24:55;9.20;99.90
5246;DHT22;54412;51.206;6.888;2023-04-09T00:27:21;9.30;99.90
5246;DHT22;54412;51.206;6.888;2023-04-09T00:29:47;9.20;99.90
5246;DHT22;54412;51.206;6.888;2023-04-09T00:32:13;9.20;99.90
5246;DHT22;54412;51.206;6.888;2023-04-09T00:34:38;9.20;99.90
5246;DHT22;54412;51.206;6.888;2023-04-09T00:37:05;9.20;99.90
5246;DHT22;54412;51.206;6.888;2023-04-09T00:39:31;9.20;99.90
5246;DHT22;54412;51.206;6.888;2023-04-09T00:41:58;9.10;99.90
5246;DHT22;54412;51.206;6.888;2023-04-09T00:44:27;9.00;99.90
5246;DHT22;54412;51.206;6.888;2023-04-09T00:46:53;9.00;99.90
5246;DHT22;54412;51.206;6.888;2023-04-09T00:49:20;9.00;99.90
5246;DHT22;54412;51.206;6.888;2023-04-09T00:51:47;8.90;99.90
5246;DHT22;54412;51.206;6.888;2023-04-09T00:54:13;9.00;99.90
5246;DHT22;54412;51.206;6.888;2023-04-09T00:56:41;8.90;99.90
5246;DHT22;54412;51.206;6.888;2023-04-09T00:59:07;8.80;99.90
5246;DHT22;54412;51.206;6.888;2023-04-09T01:01:33;8.80;99.90
5246;DHT22;54412;51.206;6.888;2023-04-09T01:03:58;8.70;99.90
5246;DHT22;54412;51.206;6.888;2023-04-09T01:09:38;8.60;99.90
5246;DHT22;54412;51.206;6.888;2023-04-09T01:15:18;8.50;99.90
5246;DHT22;54412;51.206;6.888;2023-04-09T01:18:08;8.60;99.90
5246;DHT22;54412;51.206;6.888;2023-04-09T01:20:42;8.50;99.90
5246;DHT22;54412;51.206;6.888;2023-04-09T01:23:25;8.50;99.90
5246;DHT22;54412;51.206;6.888;2023-04-09T01:28:52;8.50;99.90
5246;DHT22;54412;51.206;6.888;2023-04-09T01:31:28;8.40;99.90
5246;DHT22;54412;51.206;6.888;2023-04-09T01:33:58;8.40;99.90
5246;DHT22;54412;51.206;6.888;2023-04-09T01:36:26;8.30;99.90
5246;DHT22;54412;51.206;6.888;2023-04-09T01:38:56;8.30;99.90
5246;DHT22;54412;51.206;6.888;2023-04-09T01:41:22;8.30;99.90
5246;DHT22;54412;51.206;6.888;2023-04-09T01:43:51;8.30;99.90
5246;DHT22;54412;51.206;6.888;2023-04-09T01:46:18;8.20;99.90
5246;DHT22;54412;51.206;6.888;2023-04-09T01:48:45;8.30;99.90
5246;DHT22;54412;51.206;6.888;2023-04-09T01:51:13;8.30;99.90
5246;DHT22;54412;51.206;6.888;2023-04-09T01:53:39;8.30;99.90
5246;DHT22;54412;51.206;6.888;2023-04-09T01:56:06;8.30;99.90
5246;DHT22;54412;51.206;6.888;2023-04-09T01:58:33;8.30;99.90
5246;DHT22;54412;51.206;6.888;2023-04-09T02:03:55;8.20;99.90
5246;DHT22;54412;51.206;6.888;2023-04-09T02:06:36;8.30;99.90
5246;DHT22;54412;51.206;6.888;2023-04-09T02:09:07;8.40;99.90
5246;DHT22;54412;51.206;6.888;2023-04-09T02:11:36;8.30;99.90
5246;DHT22;54412;51.206;6.888;2023-04-09T02:14:06;8.40;99.90
5246;DHT22;54412;51.206;6.888;2023-04-09T02:16:33;8.40;99.90
5246;DHT22;54412;51.206;6.888;2023-04-09T02:19:00;8.50;99.90
5246;DHT22;54412;51.206;6.888;2023-04-09T02:21:27;8.40;99.90
5246;DHT22;54412;51.206;6.888;2023-04-09T02:23:54;8.50;99.90
5246;DHT22;54412;51.206;6.888;2023-04-09T02:26:21;8.60;99.90
5246;DHT22;54412;51.206;6.888;2023-04-09T02:28:47;8.60;99.90
5246;DHT22;54412;51.206;6.888;2023-04-09T02:31:13;8.70;99.90
5246;DHT22;54412;51.206;6.888;2023-04-09T02:33:39;8.60;99.90
5246;DHT22;54412;51.206;6.888;2023-04-09T02:36:05;8.60;99.90
5246;DHT22;54412;51.206;6.888;2023-04-09T02:38:31;8.50;99.90
5246;DHT22;54412;51.206;6.888;2023-04-09T02:40:57;8.50;99.90
5246;DHT22;54412;51.206;6.888;2023-04-09T02:43:22;8.50;99.90
5246;DHT22;54412;51.206;6.888;2023-04-09T02:45:48;8.50;99.90
5246;DHT22;54412;51.206;6.888;2023-04-09T02:48:14;8.50;99.90
5246;DHT22;54412;51.206;6.888;2023-04-09T02:50:40;8.40;99.90
5246;DHT22;54412;51.206;6.888;2023-04-09T02:53:06;8.30;99.90
5246;DHT22;54412;51.206;6.888;2023-04-09T02:55:31;8.20;99.90
5246;DHT22;54412;51.206;6.888;2023-04-09T02:57:57;8.30;99.90
5246;DHT22;54412;51.206;6.888;2023-04-09T03:00:23;8.20;99.90
5246;DHT22;54412;51.206;6.888;2023-04-09T03:02:48;8.20;99.90
5246;DHT22;54412;51.206;6.888;2023-04-09T03:05:14;8.30;99.90
5246;DHT22;54412;51.206;6.888;2023-04-09T03:07:40;8.20;99.90
5246;DHT22;54412;51.206;6.888;2023-04-09T03:10:06;8.30;99.90
5246;DHT22;54412;51.206;6.888;2023-04-09T03:12:31;8.20;99.90
5246;DHT22;54412;51.206;6.888;2023-04-09T03:14:57;8.10;99.90
5246;DHT22;54412;51.206;6.888;2023-04-09T03:17:23;8.10;99.90
5246;DHT22;54412;51.206;6.888;2023-04-09T03:19:52;8.10;99.90
5246;DHT22;54412;51.206;6.888;2023-04-09T03:22:17;8.10;99.90
5246;DHT22;54412;51.206;6.888;2023-04-09T03:24:43;8.10;99.90
5246;DHT22;54412;51.206;6.888;2023-04-09T03:27:09;8.10;99.90
5246;DHT22;54412;51.206;6.888;2023-04-09T03:29:35;8.10;99.90
5246;DHT22;54412;51.206;6.888;2023-04-09T03:32:00;8.10;99.90
5246;DHT22;54412;51.206;6.888;2023-04-09T03:34:26;8.00;99.90
5246;DHT22;54412;51.206;6.888;2023-04-09T03:36:52;8.00;99.90
5246;DHT22;54412;51.206;6.888;2023-04-09T03:39:17;8.10;99.90
5246;DHT22;54412;51.206;6.888;2023-04-09T03:41:43;8.00;99.90
5246;DHT22;54412;51.206;6.888;2023-04-09T03:44:09;8.00;99.90
5246;DHT22;54412;51.206;6.888;2023-04-09T03:46:34;8.00;99.90
5246;DHT22;54412;51.206;6.888;2023-04-09T03:49:00;7.90;99.90
5246;DHT22;54412;51.206;6.888;2023-04-09T03:51:26;7.80;99.90
5246;DHT22;54412;51.206;6.888;2023-04-09T03:53:51;7.70;99.90
5246;DHT22;54412;51.206;6.888;2023-04-09T03:56:17;7.70;99.90
5246;DHT22;54412;51.206;6.888;2023-04-09T03:58:43;7.70;99.90
5246;DHT22;54412;51.206;6.888;2023-04-09T04:01:09;7.70;99.90
5246;DHT22;54412;51.206;6.888;2023-04-09T04:03:34;7.70;99.90
5246;DHT22;54412;51.206;6.888;2023-04-09T04:06:02;7.70;99.90
5246;DHT22;54412;51.206;6.888;2023-04-09T04:08:28;7.60;99.90
5246;DHT22;54412;51.206;6.888;2023-04-09T04:10:54;7.60;99.90
5246;DHT22;54412;51.206;6.888;2023-04-09T04:13:20;7.60;99.90
5246;DHT22;54412;51.206;6.888;2023-04-09T04:15:46;7.50;99.90
5246;DHT22;54412;51.206;6.888;2023-04-09T04:18:11;7.50;99.90
5246;DHT22;54412;51.206;6.888;2023-04-09T04:20:37;7.40;99.90
5246;DHT22;54412;51.206;6.888;2023-04-09T04:23:04;7.40;99.90
5246;DHT22;54412;51.206;6.888;2023-04-09T04:25:30;7.40;99.90
5246;DHT22;54412;51.206;6.888;2023-04-09T04:27:56;7.30;99.90
5246;DHT22;54412;51.206;6.888;2023-04-09T04:30:22;7.40;99.90
5246;DHT22;54412;51.206;6.888;2023-04-09T04:32:48;7.30;99.90
5246;DHT22;54412;51.206;6.888;2023-04-09T04:35:14;7.30;99.90
5246;DHT22;54412;51.206;6.888;2023-04-09T04:37:40;7.30;99.90
5246;DHT22;54412;51.206;6.888;2023-04-09T04:40:07;7.30;99.90
5246;DHT22;54412;51.206;6.888;2023-04-09T04:42:34;7.30;99.90
5246;DHT22;54412;51.206;6.888;2023-04-09T04:44:59;7.30;99.90
5246;DHT22;54412;51.206;6.888;2023-04-09T04:47:25;7.30;99.90
5246;DHT22;54412;51.206;6.888;2023-04-09T04:49:51;7.20;99.90
5246;DHT22;54412;51.206;6.888;2023-04-09T04:52:17;7.20;99.90
5246;DHT22;54412;51.206;6.888;2023-04-09T04:54:43;7.20;99.90
5246;DHT22;54412;51.206;6.888;2023-04-09T04:57:09;7.20;99.90
5246;DHT22;54412;51.206;6.888;2023-04-09T04:59:39;7.10;99.90
5246;DHT22;54412;51.206;6.888;2023-04-09T05:02:08;7.20;99.90
5246;DHT22;54412;51.206;6.888;2023-04-09T05:04:34;7.20;99.90
5246;DHT22;54412;51.206;6.888;2023-04-09T05:06:59;7.20;99.90
5246;DHT22;54412;51.206;6.888;2023-04-09T05:09:25;7.20;99.90
5246;DHT22;54412;51.206;6.888;2023-04-09T05:11:51;7.20;99.90
5246;DHT22;54412;51.206;6.888;2023-04-09T05:14:17;7.20;99.90
5246;DHT22;54412;51.206;6.888;2023-04-09T05:16:43;7.10;99.90
5246;DHT22;54412;51.206;6.888;2023-04-09T05:19:09;7.10;99.90
5246;DHT22;54412;51.206;6.888;2023-04-09T05:21:34;7.20;99.90
5246;DHT22;54412;51.206;6.888;2023-04-09T05:24:00;7.10;99.90
5246;DHT22;54412;51.206;6.888;2023-04-09T05:26:26;7.10;99.90
5246;DHT22;54412;51.206;6.888;2023-04-09T05:28:51;7.10;99.90
5246;DHT22;54412;51.206;6.888;2023-04-09T05:31:17;7.20;99.90
5246;DHT22;54412;51.206;6.888;2023-04-09T05:33:43;7.20;99.90
5246;DHT22;54412;51.206;6.888;2023-04-09T05:36:14;7.20;99.90
5246;DHT22;54412;51.206;6.888;2023-04-09T05:38:42;7.20;99.90
5246;DHT22;54412;51.206;6.888;2023-04-09T05:41:08;7.20;99.90
5246;DHT22;54412;51.206;6.888;2023-04-09T05:43:34;7.20;99.90
5246;DHT22;54412;51.206;6.888;2023-04-09T05:45:59;7.10;99.90
5246;DHT22;54412;51.206;6.888;2023-04-09T05:48:25;7.10;99.90
5246;DHT22;54412;51.206;6.888;2023-04-09T05:50:51;7.10;99.90
5246;DHT22;54412;51.206;6.888;2023-04-09T05:53:18;7.20;99.90
5246;DHT22;54412;51.206;6.888;2023-04-09T05:55:45;7.20;99.90
5246;DHT22;54412;51.206;6.888;2023-04-09T05:58:11;7.30;99.90
5246;DHT22;54412;51.206;6.888;2023-04-09T06:00:37;7.30;99.90
5246;DHT22;54412;51.206;6.888;2023-04-09T06:03:04;7.40;99.90
5246;DHT22;54412;51.206;6.888;2023-04-09T06:05:29;7.40;99.90
5246;DHT22;54412;51.206;6.888;2023-04-09T06:07:55;7.60;99.90
5246;DHT22;54412;51.206;6.888;2023-04-09T06:10:21;7.70;99.90
5246;DHT22;54412;51.206;6.888;2023-04-09T06:12:48;7.90;99.90
5246;DHT22;54412;51.206;6.888;2023-04-09T06:15:14;8.00;99.90
5246;DHT22;54412;51.206;6.888;2023-04-09T06:17:40;8.20;99.90
5246;DHT22;54412;51.206;6.888;2023-04-09T06:20:06;8.30;99.90
5246;DHT22;54412;51.206;6.888;2023-04-09T06:22:32;8.40;99.90
5246;DHT22;54412;51.206;6.888;2023-04-09T06:24:57;8.60;99.90
5246;DHT22;54412;51.206;6.888;2023-04-09T06:27:24;8.70;99.90
5246;DHT22;54412;51.206;6.888;2023-04-09T06:29:50;8.70;99.90
5246;DHT22;54412;51.206;6.888;2023-04-09T06:32:16;8.80;99.90
5246;DHT22;54412;51.206;6.888;2023-04-09T06:34:42;8.90;99.90
5246;DHT22;54412;51.206;6.888;2023-04-09T06:37:07;8.90;99.90
5246;DHT22;54412;51.206;6.888;2023-04-09T06:39:33;9.00;99.90
5246;DHT22;54412;51.206;6.888;2023-04-09T06:41:59;9.10;99.90
5246;DHT22;54412;51.206;6.888;2023-04-09T06:44:25;9.20;99.90
5246;DHT22;54412;51.206;6.888;2023-04-09T06:46:50;9.30;99.90
5246;DHT22;54412;51.206;6.888;2023-04-09T06:49:16;9.30;99.90
5246;DHT22;54412;51.206;6.888;2023-04-09T06:51:42;9.50;99.90
5246;DHT22;54412;51.206;6.888;2023-04-09T06:54:07;9.60;99.90
5246;DHT22;54412;51.206;6.888;2023-04-09T06:56:33;9.70;99.90
5246;DHT22;54412;51.206;6.888;2023-04-09T06:58:59;9.80;99.90
5246;DHT22;54412;51.206;6.888;2023-04-09T07:01:25;9.80;99.90
5246;DHT22;54412;51.206;6.888;2023-04-09T07:03:51;9.90;99.90
5246;DHT22;54412;51.206;6.888;2023-04-09T07:06:17;10.00;99.90
5246;DHT22;54412;51.206;6.888;2023-04-09T07:08:43;10.20;99.90
5246;DHT22;54412;51.206;6.888;2023-04-09T07:11:08;10.10;99.90
5246;DHT22;54412;51.206;6.888;2023-04-09T07:13:34;10.30;99.90
5246;DHT22;54412;51.206;6.888;2023-04-09T07:16:00;10.40;99.90
5246;DHT22;54412;51.206;6.888;2023-04-09T07:18:26;10.50;99.90
5246;DHT22;54412;51.206;6.888;2023-04-09T07:20:52;10.50;99.90
5246;DHT22;54412;51.206;6.888;2023-04-09T07:23:18;10.50;99.90
5246;DHT22;54412;51.206;6.888;2023-04-09T07:25:44;10.60;99.90
5246;DHT22;54412;51.206;6.888;2023-04-09T07:28:10;10.50;99.90
5246;DHT22;54412;51.206;6.888;2023-04-09T07:30:36;10.60;99.90
5246;DHT22;54412;51.206;6.888;2023-04-09T07:33:04;10.60;99.90
5246;DHT22;54412;51.206;6.888;2023-04-09T07:35:29;10.80;99.90
5246;DHT22;54412;51.206;6.888;2023-04-09T07:37:56;10.80;99.90
5246;DHT22;54412;51.206;6.888;2023-04-09T07:40:23;10.70;99.90
5246;DHT22;54412;51.206;6.888;2023-04-09T07:42:48;10.80;99.90
5246;DHT22;54412;51.206;6.888;2023-04-09T07:45:15;10.90;99.90
5246;DHT22;54412;51.206;6.888;2023-04-09T07:47:41;11.10;99.90
5246;DHT22;54412;51.206;6.888;2023-04-09T07:50:07;11.00;99.90
5246;DHT22;54412;51.206;6.888;2023-04-09T07:52:34;11.20;99.90
5246;DHT22;54412;51.206;6.888;2023-04-09T07:54:59;11.30;99.90
5246;DHT22;54412;51.206;6.888;2023-04-09T07:57:25;11.40;99.90
5246;DHT22;54412;51.206;6.888;2023-04-09T07:59:52;11.40;99.90
5246;DHT22;54412;51.206;6.888;2023-04-09T08:02:18;11.40;99.90
5246;DHT22;54412;51.206;6.888;2023-04-09T08:04:44;11.50;99.90
5246;DHT22;54412;51.206;6.888;2023-04-09T08:07:09;11.50;99.90
5246;DHT22;54412;51.206;6.888;2023-04-09T08:09:36;11.60;99.90
5246;DHT22;54412;51.206;6.888;2023-04-09T08:12:01;11.60;99.90
5246;DHT22;54412;51.206;6.888;2023-04-09T08:14:27;11.80;99.90
5246;DHT22;54412;51.206;6.888;2023-04-09T08:16:53;11.90;99.90
5246;DHT22;54412;51.206;6.888;2023-04-09T08:19:19;12.00;99.90
5246;DHT22;54412;51.206;6.888;2023-04-09T08:21:45;12.10;99.90
5246;DHT22;54412;51.206;6.888;2023-04-09T08:24:13;12.00;99.90
5246;DHT22;54412;51.206;6.888;2023-04-09T08:26:40;12.00;99.90
5246;DHT22;54412;51.206;6.888;2023-04-09T08:29:07;12.00;99.90
5246;DHT22;54412;51.206;6.888;2023-04-09T08:31:34;12.10;99.90
5246;DHT22;54412;51.206;6.888;2023-04-09T08:34:01;12.20;99.90
5246;DHT22;54412;51.206;6.888;2023-04-09T08:36:27;12.40;99.90
5246;DHT22;54412;51.206;6.888;2023-04-09T08:38:53;12.40;99.90
5246;DHT22;54412;51.206;6.888;2023-04-09T08:41:23;12.60;99.90
5246;DHT22;54412;51.206;6.888;2023-04-09T08:43:50;12.80;99.90
5246;DHT22;54412;51.206;6.888;2023-04-09T08:46:18;12.80;99.90
5246;DHT22;54412;51.206;6.888;2023-04-09T08:48:45;13.00;99.90
5246;DHT22;54412;51.206;6.888;2023-04-09T08:51:13;13.00;99.90
5246;DHT22;54412;51.206;6.888;2023-04-09T08:53:46;13.00;99.90
5246;DHT22;54412;51.206;6.888;2023-04-09T08:56:14;13.10;99.90
5246;DHT22;54412;51.206;6.888;2023-04-09T08:58:42;13.30;99.90
5246;DHT22;54412;51.206;6.888;2023-04-09T09:01:24;13.30;99.90
5246;DHT22;54412;51.206;6.888;2023-04-09T09:06:26;13.60;99.90
5246;DHT22;54412;51.206;6.888;2023-04-09T09:09:14;13.40;99.90
5246;DHT22;54412;51.206;6.888;2023-04-09T09:11:42;13.50;99.90
5246;DHT22;54412;51.206;6.888;2023-04-09T09:14:19;13.50;99.90
5246;DHT22;54412;51.206;6.888;2023-04-09T09:22:01;13.90;99.90
5246;DHT22;54412;51.206;6.888;2023-04-09T09:24:29;13.80;99.90
5246;DHT22;54412;51.206;6.888;2023-04-09T09:26:57;14.10;99.90
5246;DHT22;54412;51.206;6.888;2023-04-09T09:29:23;14.00;99.90
5246;DHT22;54412;51.206;6.888;2023-04-09T09:31:51;14.00;99.90
5246;DHT22;54412;51.206;6.888;2023-04-09T09:34:19;14.10;99.90
5246;DHT22;54412;51.206;6.888;2023-04-09T09:36:46;14.20;99.90
5246;DHT22;54412;51.206;6.888;2023-04-09T09:39:13;14.20;99.90
5246;DHT22;54412;51.206;6.888;2023-04-09T09:41:42;14.40;99.90
5246;DHT22;54412;51.206;6.888;2023-04-09T09:44:10;14.20;99.90
5246;DHT22;54412;51.206;6.888;2023-04-09T09:46:38;14.30;99.90
5246;DHT22;54412;51.206;6.888;2023-04-09T09:49:07;14.20;99.90
5246;DHT22;54412;51.206;6.888;2023-04-09T09:51:36;14.40;99.90
5246;DHT22;54412;51.206;6.888;2023-04-09T09:54:06;14.40;99.90
5246;DHT22;54412;51.206;6.888;2023-04-09T09:56:35;14.60;99.90
5246;DHT22;54412;51.206;6.888;2023-04-09T10:01:42;15.10;99.90
5246;DHT22;54412;51.206;6.888;2023-04-09T10:04:12;15.00;99.90
5246;DHT22;54412;51.206;6.888;2023-04-09T10:06:43;15.20;99.90
5246;DHT22;54412;51.206;6.888;2023-04-09T10:09:10;15.20;99.90
5246;DHT22;54412;51.206;6.888;2023-04-09T10:11:38;15.30;99.90
5246;DHT22;54412;51.206;6.888;2023-04-09T10:14:07;15.10;99.90
5246;DHT22;54412;51.206;6.888;2023-04-09T10:16:33;15.00;99.90
5246;DHT22;54412;51.206;6.888;2023-04-09T10:19:00;15.10;99.90
5246;DHT22;54412;51.206;6.888;2023-04-09T10:24:13;15.30;99.90
5246;DHT22;54412;51.206;6.888;2023-04-09T10:26:41;15.00;99.90
5246;DHT22;54412;51.206;6.888;2023-04-09T10:29:11;15.30;99.90
5246;DHT22;54412;51.206;6.888;2023-04-09T10:32:02;15.10;99.90
5246;DHT22;54412;51.206;6.888;2023-04-09T10:34:34;15.30;99.90
5246;DHT22;54412;51.206;6.888;2023-04-09T10:37:02;15.40;99.90
5246;DHT22;54412;51.206;6.888;2023-04-09T10:39:30;15.70;99.90
5246;DHT22;54412;51.206;6.888;2023-04-09T10:42:03;15.80;99.00
5246;DHT22;54412;51.206;6.888;2023-04-09T10:44:38;15.70;99.40
5246;DHT22;54412;51.206;6.888;2023-04-09T10:47:07;15.70;99.20
5246;DHT22;54412;51.206;6.888;2023-04-09T10:49:38;15.70;98.80
5246;DHT22;54412;51.206;6.888;2023-04-09T10:52:05;15.30;99.10
5246;DHT22;54412;51.206;6.888;2023-04-09T10:59:40;15.10;99.80
5246;DHT22;54412;51.206;6.888;2023-04-09T11:02:08;14.90;99.90
5246;DHT22;54412;51.206;6.888;2023-04-09T11:10:29;16.50;97.20
5246;DHT22;54412;51.206;6.888;2023-04-09T11:12:55;16.40;96.50
5246;DHT22;54412;51.206;6.888;2023-04-09T11:15:22;16.20;97.80
5246;DHT22;54412;51.206;6.888;2023-04-09T11:17:48;16.00;96.50
5246;DHT22;54412;51.206;6.888;2023-04-09T11:20:18;15.40;97.20
5246;DHT22;54412;51.206;6.888;2023-04-09T11:22:46;15.00;99.00
5246;DHT22;54412;51.206;6.888;2023-04-09T11:25:32;15.30;99.40
5246;DHT22;54412;51.206;6.888;2023-04-09T11:28:02;15.70;99.40
5246;DHT22;54412;51.206;6.888;2023-04-09T11:30:29;16.00;97.40
5246;DHT22;54412;51.206;6.888;2023-04-09T11:32:55;16.10;97.60
5246;DHT22;54412;51.206;6.888;2023-04-09T11:35:21;16.10;96.30
5246;DHT22;54412;51.206;6.888;2023-04-09T11:37:48;16.40;96.40
5246;DHT22;54412;51.206;6.888;2023-04-09T11:42:49;16.40;96.50
5246;DHT22;54412;51.206;6.888;2023-04-09T11:45:17;16.80;97.20
5246;DHT22;54412;51.206;6.888;2023-04-09T11:47:44;17.30;95.70
5246;DHT22;54412;51.206;6.888;2023-04-09T11:50:12;16.80;94.80
5246;DHT22;54412;51.206;6.888;2023-04-09T11:52:39;16.80;95.40
5246;DHT22;54412;51.206;6.888;2023-04-09T11:55:08;16.70;96.20
5246;DHT22;54412;51.206;6.888;2023-04-09T11:57:45;16.50;95.60
5246;DHT22;54412;51.206;6.888;2023-04-09T12:00:15;16.30;96.70
5246;DHT22;54412;51.206;6.888;2023-04-09T12:02:47;16.20;97.10
5246;DHT22;54412;51.206;6.888;2023-04-09T12:05:21;16.10;97.80
5246;DHT22;54412;51.206;6.888;2023-04-09T12:07:48;15.90;97.70
5246;DHT22;54412;51.206;6.888;2023-04-09T12:10:13;15.80;97.00
5246;DHT22;54412;51.206;6.888;2023-04-09T12:12:45;15.60;97.70
5246;DHT22;54412;51.206;6.888;2023-04-09T12:15:19;15.60;97.00
5246;DHT22;54412;51.206;6.888;2023-04-09T12:17:48;15.70;97.50
5246;DHT22;54412;51.206;6.888;2023-04-09T12:20:28;15.80;97.10
5246;DHT22;54412;51.206;6.888;2023-04-09T12:23:05;16.00;96.90
5246;DHT22;54412;51.206;6.888;2023-04-09T12:25:37;15.70;97.60
5246;DHT22;54412;51.206;6.888;2023-04-09T12:28:06;15.60;98.30
5246;DHT22;54412;51.206;6.888;2023-04-09T12:30:33;16.30;98.60
5246;DHT22;54412;51.206;6.888;2023-04-09T12:32:59;16.40;95.70
5246;DHT22;54412;51.206;6.888;2023-04-09T12:35:25;16.40;94.30
5246;DHT22;54412;51.206;6.888;2023-04-09T12:37:51;16.20;95.40
5246;DHT22;54412;51.206;6.888;2023-04-09T12:40:17;16.80;95.10
5246;DHT22;54412;51.206;6.888;2023-04-09T12:42:44;16.80;94.60
5246;DHT22;54412;51.206;6.888;2023-04-09T12:45:15;16.70;96.10
5246;DHT22;54412;51.206;6.888;2023-04-09T12:47:42;16.60;96.20
5246;DHT22;54412;51.206;6.888;2023-04-09T12:50:09;16.40;95.40
5246;DHT22;54412;51.206;6.888;2023-04-09T12:52:36;16.70;96.70
5246;DHT22;54412;51.206;6.888;2023-04-09T12:55:03;16.80;95.50
5246;DHT22;54412;51.206;6.888;2023-04-09T12:57:30;16.20;94.40
5246;DHT22;54412;51.206;6.888;2023-04-09T12:59:55;15.80;95.90
5246;DHT22;54412;51.206;6.888;2023-04-09T13:02:21;15.50;96.70
5246;DHT22;54412;51.206;6.888;2023-04-09T13:04:48;15.50;96.00
5246;DHT22;54412;51.206;6.888;2023-04-09T13:07:15;15.70;96.20
5246;DHT22;54412;51.206;6.888;2023-04-09T13:09:45;15.70;96.70
5246;DHT22;54412;51.206;6.888;2023-04-09T13:12:12;15.70;96.20
5246;DHT22;54412;51.206;6.888;2023-04-09T13:14:40;15.70;96.70
5246;DHT22;54412;51.206;6.888;2023-04-09T13:17:06;16.10;96.00
5246;DHT22;54412;51.206;6.888;2023-04-09T13:19:31;16.50;94.50
5246;DHT22;54412;51.206;6.888;2023-04-09T13:21:57;17.30;95.50
5246;DHT22;54412;51.206;6.888;2023-04-09T13:24:23;17.30;94.10
5246;DHT22;54412;51.206;6.888;2023-04-09T13:26:49;17.70;92.80
5246;DHT22;54412;51.206;6.888;2023-04-09T13:29:15;17.90;91.70
5246;DHT22;54412;51.206;6.888;2023-04-09T13:31:42;17.30;93.30
5246;DHT22;54412;51.206;6.888;2023-04-09T13:34:08;16.30;92.90
5246;DHT22;54412;51.206;6.888;2023-04-09T13:36:34;16.00;94.50
5246;DHT22;54412;51.206;6.888;2023-04-09T13:39:00;15.80;95.00
5246;DHT22;54412;51.206;6.888;2023-04-09T13:41:32;15.70;94.70
5246;DHT22;54412;51.206;6.888;2023-04-09T13:43:58;15.70;95.20
5246;DHT22;54412;51.206;6.888;2023-04-09T13:46:25;15.70;95.30
5246;DHT22;54412;51.206;6.888;2023-04-09T13:48:51;16.10;94.80
5246;DHT22;54412;51.206;6.888;2023-04-09T13:51:17;16.30;94.20
5246;DHT22;54412;51.206;6.888;2023-04-09T13:53:42;16.60;93.60
5246;DHT22;54412;51.206;6.888;2023-04-09T13:56:10;16.60;92.30
5246;DHT22;54412;51.206;6.888;2023-04-09T13:58:35;16.70;92.90
5246;DHT22;54412;51.206;6.888;2023-04-09T14:01:01;16.80;92.60
5246;DHT22;54412;51.206;6.888;2023-04-09T14:03:27;17.00;92.00
5246;DHT22;54412;51.206;6.888;2023-04-09T14:05:53;17.20;92.20
5246;DHT22;54412;51.206;6.888;2023-04-09T14:08:18;16.80;92.10
5246;DHT22;54412;51.206;6.888;2023-04-09T14:10:44;16.60;93.80
5246;DHT22;54412;51.206;6.888;2023-04-09T14:13:10;16.50;93.20
5246;DHT22;54412;51.206;6.888;2023-04-09T14:15:36;16.50;93.20
5246;DHT22;54412;51.206;6.888;2023-04-09T14:18:02;16.50;94.30
5246;DHT22;54412;51.206;6.888;2023-04-09T14:20:28;16.70;94.40
5246;DHT22;54412;51.206;6.888;2023-04-09T14:22:53;16.80;93.00
5246;DHT22;54412;51.206;6.888;2023-04-09T14:25:19;16.40;93.00
5246;DHT22;54412;51.206;6.888;2023-04-09T14:27:45;16.20;92.80
5246;DHT22;54412;51.206;6.888;2023-04-09T14:30:11;16.40;94.10
5246;DHT22;54412;51.206;6.888;2023-04-09T14:32:37;16.50;93.90
5246;DHT22;54412;51.206;6.888;2023-04-09T14:35:04;16.80;94.20
5246;DHT22;54412;51.206;6.888;2023-04-09T14:37:30;16.50;93.00
5246;DHT22;54412;51.206;6.888;2023-04-09T14:39:56;16.00;93.60
5246;DHT22;54412;51.206;6.888;2023-04-09T14:42:22;15.60;94.00
5246;DHT22;54412;51.206;6.888;2023-04-09T14:44:47;15.50;94.70
5246;DHT22;54412;51.206;6.888;2023-04-09T14:47:13;15.60;95.40
5246;DHT22;54412;51.206;6.888;2023-04-09T14:49:39;15.90;94.40
5246;DHT22;54412;51.206;6.888;2023-04-09T14:52:04;15.90;94.30
5246;DHT22;54412;51.206;6.888;2023-04-09T14:54:30;16.00;93.80
5246;DHT22;54412;51.206;6.888;2023-04-09T14:56:57;16.20;94.50
5246;DHT22;54412;51.206;6.888;2023-04-09T14:59:23;15.90;93.20
5246;DHT22;54412;51.206;6.888;2023-04-09T15:01:49;15.50;93.80
5246;DHT22;54412;51.206;6.888;2023-04-09T15:04:15;15.40;94.80
5246;DHT22;54412;51.206;6.888;2023-04-09T15:06:41;15.40;95.50
5246;DHT22;54412;51.206;6.888;2023-04-09T15:09:07;15.40;94.10
5246;DHT22;54412;51.206;6.888;2023-04-09T15:11:32;15.50;95.10
5246;DHT22;54412;51.206;6.888;2023-04-09T15:13:58;15.60;95.10
5246;DHT22;54412;51.206;6.888;2023-04-09T15:16:25;15.70;94.80
5246;DHT22;54412;51.206;6.888;2023-04-09T15:18:53;15.90;96.60
5246;DHT22;54412;51.206;6.888;2023-04-09T15:21:22;16.10;94.40
5246;DHT22;54412;51.206;6.888;2023-04-09T15:23:51;16.10;94.70
5246;DHT22;54412;51.206;6.888;2023-04-09T15:26:17;16.20;94.80
5246;DHT22;54412;51.206;6.888;2023-04-09T15:28:42;16.10;94.40
5246;DHT22;54412;51.206;6.888;2023-04-09T15:31:08;16.20;93.80
5246;DHT22;54412;51.206;6.888;2023-04-09T15:33:34;16.10;94.40
5246;DHT22;54412;51.206;6.888;2023-04-09T15:36:00;15.90;93.90
5246;DHT22;54412;51.206;6.888;2023-04-09T15:38:26;15.90;94.90
5246;DHT22;54412;51.206;6.888;2023-04-09T15:40:53;16.00;95.40
5246;DHT22;54412;51.206;6.888;2023-04-09T15:43:22;16.00;95.50
5246;DHT22;54412;51.206;6.888;2023-04-09T15:45:51;15.90;95.80
5246;DHT22;54412;51.206;6.888;2023-04-09T15:48:17;15.80;96.10
5246;DHT22;54412;51.206;6.888;2023-04-09T15:50:44;15.90;97.10
5246;DHT22;54412;51.206;6.888;2023-04-09T15:53:12;15.90;96.20
5246;DHT22;54412;51.206;6.888;2023-04-09T15:55:39;15.80;96.30
5246;DHT22;54412;51.206;6.888;2023-04-09T15:58:05;15.70;96.70
5246;DHT22;54412;51.206;6.888;2023-04-09T16:00:30;15.70;97.40
5246;DHT22;54412;51.206;6.888;2023-04-09T16:02:56;15.80;97.30
5246;DHT22;54412;51.206;6.888;2023-04-09T16:05:22;15.70;96.40
5246;DHT22;54412;51.206;6.888;2023-04-09T16:07:50;15.50;96.40
5246;DHT22;54412;51.206;6.888;2023-04-09T16:10:17;15.40;95.80
5246;DHT22;54412;51.206;6.888;2023-04-09T16:12:43;15.20;96.20
5246;DHT22;54412;51.206;6.888;2023-04-09T16:15:09;15.30;96.60
5246;DHT22;54412;51.206;6.888;2023-04-09T16:17:35;15.30;96.10
5246;DHT22;54412;51.206;6.888;2023-04-09T16:20:00;15.20;96.30
5246;DHT22;54412;51.206;6.888;2023-04-09T16:22:27;15.10;96.20
5246;DHT22;54412;51.206;6.888;2023-04-09T16:24:53;15.20;97.00
5246;DHT22;54412;51.206;6.888;2023-04-09T16:27:20;15.20;96.20
5246;DHT22;54412;51.206;6.888;2023-04-09T16:29:46;15.20;96.80